Main page
Satellite images 10-day forecastsClimateMarine weather Cyclones Lightning AirportsFAQ Newsletter About
Weather : Europe Africa North America South America Asia Australia-Oceania Others
Languages Contact

London-Heathrow, England

London Heathrow Airport

latitude: 51-29N, longitude: 000-27W, elevation: 24 m


METAR: EGLL 261050Z 32007KT 270V020 9999 FEW038 17/06 Q1023
TAF: EGLL 260457Z 2606/2712 32008KT 9999 SCT035 BECMG 2710/2712 25010KT

Time: 12:28 (11:28 UTC)

Current weather observation

The report was made 38 minutes ago, at 10:50 UTC
Wind 7 kt from the Northwest, varying between West and North/Northeast
Temperature 17°C
Humidity 48%
Pressure 1023 hPa
Visibility 10 km or more
Few clouds at a height of 3800 ft

Change units

Forecast

The report was made 6 hours and 31 minutes ago, at 04:57 UTC
Forecast valid from 26 at 06 UTC to 27 at 12 UTC
Wind 8 kt from the Northwest
Visibility 10 km or more
Scattered clouds at a height of 3500 ft
Becoming
from 27 at 10 UTC to 27 at 12 UTC
Wind 10 kt from the West/Southwest
The information on this site is subject to a disclaimer
Weather : Europe Africa North America South America Asia Australia-Oceania Others
Satellite images 10-day forecastsClimateMarine weather Cyclones Lightning AirportsFAQ Languages Contact Newsletter About